Terminal Aerodrome Forecast
Issued by NWS Detroit/Pontiac, MI

Home | Current Version | Previous Version | Text Only | Print | Product List | Glossary On
Versions: 1 2 3 4 5 6 7 8 9 10 11 12 13 14 15
731
FTUS43 KDTX 211729
TAFFNT
TAF
KFNT 211729Z 2118/2218 24015G24KT P6SM SCT060 OVC100
     FM212000 28014G22KT P6SM SCT035 OVC060
      TEMPO 2120/2122 5SM -RASN BKN025 OVC040
     FM220000 29012G18KT P6SM BKN040
     FM220300 31011KT P6SM SCT030 BKN040
     FM220900 30010KT P6SM SCT030=

USA.gov is the U.S. government's official web portal to all federal, state and local government web resources and services.